createdAt,value
2019-03-26T00:00:27.552Z,5.08
2019-03-26T00:02:56.381Z,5.16
2019-03-26T00:05:24.683Z,5.19
2019-03-26T00:07:53.493Z,5.26
2019-03-26T00:10:21.869Z,5.20
2019-03-26T00:12:50.134Z,5.22
2019-03-26T00:15:18.370Z,5.25
2019-03-26T00:17:47.040Z,5.21
2019-03-26T00:20:15.505Z,5.22
2019-03-26T00:22:43.817Z,5.23
2019-03-26T00:25:12.462Z,5.29
2019-03-26T00:27:40.761Z,5.28
2019-03-26T00:30:09.431Z,5.20
2019-03-26T00:32:37.828Z,5.15
2019-03-26T00:35:06.280Z,5.19
2019-03-26T00:37:34.708Z,5.23
2019-03-26T00:40:03.366Z,5.17
2019-03-26T00:42:33.464Z,5.17
2019-03-26T00:45:01.809Z,5.16
2019-03-26T00:47:30.212Z,5.26
2019-03-26T00:49:58.468Z,5.36
2019-03-26T00:52:26.793Z,5.36
2019-03-26T00:54:55.016Z,5.36
2019-03-26T00:57:23.335Z,5.28
2019-03-26T00:59:51.638Z,5.19
2019-03-26T01:02:20.047Z,5.20
2019-03-26T01:04:48.470Z,5.23
2019-03-26T01:07:16.843Z,5.16
2019-03-26T01:09:45.327Z,5.10
2019-03-26T01:12:14.369Z,5.02
2019-03-26T01:14:42.615Z,5.11
2019-03-26T01:17:11.220Z,5.17
2019-03-26T01:19:41.250Z,5.12
2019-03-26T01:22:09.642Z,5.01
2019-03-26T01:24:37.890Z,4.92
2019-03-26T01:27:06.599Z,5.03
2019-03-26T01:29:34.941Z,5.09
2019-03-26T01:32:03.389Z,5.20
2019-03-26T01:34:31.632Z,5.20
2019-03-26T01:36:59.952Z,5.22
2019-03-26T01:39:28.210Z,5.16
2019-03-26T01:41:56.515Z,5.13
2019-03-26T01:44:24.812Z,5.13
2019-03-26T01:46:53.100Z,5.20
2019-03-26T01:49:21.385Z,5.27
2019-03-26T01:51:49.672Z,5.22
2019-03-26T01:54:17.937Z,5.13
2019-03-26T01:56:49.511Z,5.16
2019-03-26T01:59:17.901Z,5.24
2019-03-26T02:01:46.210Z,5.23
2019-03-26T02:04:14.496Z,5.18
2019-03-26T02:06:46.240Z,5.06
2019-03-26T02:09:14.513Z,5.04
2019-03-26T02:11:42.828Z,4.99
2019-03-26T02:14:11.183Z,5.04
2019-03-26T02:16:39.462Z,5.06
2019-03-26T02:19:07.768Z,4.99
2019-03-26T02:21:36.164Z,5.03
2019-03-26T02:24:04.758Z,5.06
2019-03-26T02:26:33.117Z,5.00
2019-03-26T02:29:01.528Z,5.08
2019-03-26T02:31:29.791Z,5.13
2019-03-26T02:33:58.116Z,5.20
2019-03-26T02:36:26.453Z,5.26
2019-03-26T02:38:54.784Z,5.33
2019-03-26T02:41:23.165Z,5.34
2019-03-26T02:43:51.432Z,5.24
2019-03-26T02:46:19.712Z,5.24
2019-03-26T02:48:48.694Z,5.15
2019-03-26T02:51:16.980Z,5.10
2019-03-26T02:53:45.371Z,5.22
2019-03-26T02:56:13.708Z,5.17
2019-03-26T02:58:42.040Z,5.15
2019-03-26T03:01:10.406Z,5.15
2019-03-26T03:03:38.671Z,5.16
2019-03-26T03:06:07.299Z,4.98
2019-03-26T03:08:35.631Z,5.09
2019-03-26T03:11:04.433Z,5.18
2019-03-26T03:13:32.691Z,5.12
2019-03-26T03:16:01.952Z,5.16
2019-03-26T03:18:30.204Z,5.24
2019-03-26T03:20:58.566Z,5.24
2019-03-26T03:23:27.047Z,5.24
2019-03-26T03:25:55.767Z,5.24
2019-03-26T03:28:24.164Z,5.25
2019-03-26T03:30:53.356Z,5.19
2019-03-26T03:33:21.729Z,5.21
2019-03-26T03:35:52.723Z,4.96
2019-03-26T03:38:20.358Z,4.86
2019-03-26T03:40:48.894Z,4.95
2019-03-26T03:43:17.885Z,5.06
2019-03-26T03:45:46.990Z,5.12
2019-03-26T03:48:15.849Z,5.07
2019-03-26T03:50:44.825Z,5.13
2019-03-26T03:53:16.296Z,5.11
2019-03-26T03:55:46.211Z,5.17
2019-03-26T03:58:15.302Z,5.23
2019-03-26T04:00:43.695Z,5.27
2019-03-26T04:03:12.221Z,5.26
2019-03-26T04:05:40.753Z,5.01
2019-03-26T04:08:09.362Z,4.94
2019-03-26T04:10:37.830Z,4.71
2019-03-26T04:13:06.368Z,4.71
2019-03-26T04:15:35.445Z,4.67
2019-03-26T04:18:04.027Z,4.46
2019-03-26T04:20:33.407Z,4.34
2019-03-26T04:23:01.748Z,4.40
2019-03-26T04:25:30.198Z,4.29
2019-03-26T04:27:58.725Z,4.48
2019-03-26T04:30:33.675Z,4.47
2019-03-26T04:33:02.114Z,4.38
2019-03-26T04:35:30.795Z,4.34
2019-03-26T04:37:59.641Z,4.41
2019-03-26T04:40:28.648Z,4.37
2019-03-26T04:42:57.120Z,4.52
2019-03-26T04:45:25.567Z,4.55
2019-03-26T04:47:53.825Z,4.57
2019-03-26T04:50:22.276Z,4.65
2019-03-26T04:52:50.580Z,4.72
2019-03-26T04:55:18.877Z,4.81
2019-03-26T04:57:47.120Z,4.88
2019-03-26T05:00:15.918Z,4.89
2019-03-26T05:02:44.378Z,4.89
2019-03-26T05:05:12.897Z,4.94
2019-03-26T05:07:41.252Z,4.85
2019-03-26T05:10:13.278Z,4.86
2019-03-26T05:12:42.190Z,4.88
2019-03-26T05:15:12.029Z,4.91
2019-03-26T05:17:40.405Z,4.88
2019-03-26T05:20:09.361Z,4.89
2019-03-26T05:22:37.689Z,4.97
2019-03-26T05:25:07.371Z,4.98
2019-03-26T05:27:45.281Z,5.01
2019-03-26T05:30:07.077Z,5.02
2019-03-26T05:32:35.446Z,5.01
2019-03-26T05:35:03.962Z,4.98
2019-03-26T05:37:32.217Z,4.99
2019-03-26T05:40:00.596Z,5.02
2019-03-26T05:42:29.541Z,5.04
2019-03-26T05:44:57.822Z,5.07
2019-03-26T05:47:26.234Z,5.07
2019-03-26T05:49:54.550Z,5.14
2019-03-26T05:52:22.794Z,5.15
2019-03-26T05:54:51.090Z,5.11
2019-03-26T05:57:19.312Z,5.11
2019-03-26T05:59:47.653Z,5.09
2019-03-26T06:02:17.996Z,5.09
2019-03-26T06:04:46.160Z,5.09
2019-03-26T06:07:14.606Z,5.15
2019-03-26T06:09:43.064Z,5.16
2019-03-26T06:12:11.330Z,5.22
2019-03-26T06:14:39.644Z,5.29
2019-03-26T06:17:07.874Z,5.32
2019-03-26T06:19:36.292Z,5.33
2019-03-26T06:22:04.526Z,5.37
2019-03-26T06:24:32.902Z,5.33
2019-03-26T06:27:01.395Z,5.42
2019-03-26T06:29:29.676Z,5.42
2019-03-26T06:31:58.023Z,5.39
2019-03-26T06:34:26.535Z,5.39
2019-03-26T06:37:03.655Z,5.33
2019-03-26T06:39:31.937Z,5.32
2019-03-26T06:42:00.300Z,5.28
2019-03-26T06:44:28.576Z,5.30
2019-03-26T06:46:56.799Z,5.22
2019-03-26T06:49:25.120Z,5.20
2019-03-26T06:51:53.344Z,5.08
2019-03-26T06:54:21.617Z,5.03
2019-03-26T06:56:49.857Z,5.08
2019-03-26T06:59:18.160Z,5.09
2019-03-26T07:01:46.803Z,5.17
2019-03-26T07:04:15.114Z,5.20
2019-03-26T07:06:43.387Z,5.31
2019-03-26T07:09:11.671Z,5.26
2019-03-26T07:11:39.982Z,5.35
2019-03-26T07:14:08.252Z,5.33
2019-03-26T07:16:36.601Z,5.43
2019-03-26T07:19:04.861Z,5.45
2019-03-26T07:21:33.167Z,5.56
2019-03-26T07:24:01.669Z,5.51
2019-03-26T07:26:30.122Z,5.57
2019-03-26T07:28:58.388Z,5.68
2019-03-26T07:31:26.691Z,5.75
2019-03-26T07:33:54.950Z,5.75
2019-03-26T07:36:23.229Z,5.66
2019-03-26T07:38:55.182Z,5.79
2019-03-26T07:41:23.486Z,5.96
2019-03-26T07:43:51.741Z,6.06
2019-03-26T07:46:20.067Z,5.98
2019-03-26T07:48:48.494Z,5.96
2019-03-26T07:51:16.781Z,5.97
2019-03-26T07:53:44.990Z,5.97
2019-03-26T07:56:15.105Z,6.05
2019-03-26T07:58:43.313Z,6.23
2019-03-26T08:01:11.610Z,6.32
2019-03-26T08:03:39.822Z,6.46
2019-03-26T08:06:08.110Z,6.59
2019-03-26T08:08:36.388Z,6.69
2019-03-26T08:11:04.747Z,6.81
2019-03-26T08:13:33.665Z,6.89
2019-03-26T08:16:01.962Z,7.01
2019-03-26T08:18:30.180Z,7.10
2019-03-26T08:20:58.469Z,7.18
2019-03-26T08:23:26.709Z,7.23
2019-03-26T08:25:55.118Z,7.29
2019-03-26T08:28:23.331Z,7.36
2019-03-26T08:30:51.646Z,7.50
2019-03-26T08:33:19.914Z,7.67
2019-03-26T08:35:48.231Z,7.84
2019-03-26T08:38:16.474Z,7.83
2019-03-26T08:40:45.678Z,7.79
2019-03-26T08:43:13.926Z,7.79
2019-03-26T08:45:42.304Z,7.81
2019-03-26T08:48:10.833Z,7.77
2019-03-26T08:50:39.249Z,7.84
2019-03-26T08:53:07.572Z,7.90
2019-03-26T08:55:35.888Z,7.95
2019-03-26T08:58:04.259Z,7.95
2019-03-26T09:00:32.779Z,7.95
2019-03-26T09:03:01.039Z,8.00
2019-03-26T09:05:29.349Z,7.95
2019-03-26T09:07:57.630Z,7.95
2019-03-26T09:10:25.889Z,8.09
2019-03-26T09:12:54.292Z,8.06
2019-03-26T09:15:22.576Z,8.02
2019-03-26T09:17:51.000Z,8.04
2019-03-26T09:20:19.397Z,7.99
2019-03-26T09:22:47.930Z,7.91
2019-03-26T09:25:16.324Z,7.93
2019-03-26T09:27:44.829Z,7.93
2019-03-26T09:30:15.400Z,7.89
2019-03-26T09:32:44.210Z,7.91
2019-03-26T09:35:12.932Z,8.12
2019-03-26T09:37:41.286Z,8.29
2019-03-26T09:40:12.307Z,8.38
2019-03-26T09:42:40.918Z,8.26
2019-03-26T09:45:10.345Z,8.30
2019-03-26T09:47:38.726Z,8.53
2019-03-26T09:50:10.615Z,8.61
2019-03-26T09:52:42.356Z,8.62
2019-03-26T09:55:10.822Z,8.54
2019-03-26T09:57:39.326Z,8.55
2019-03-26T10:00:08.469Z,8.59
2019-03-26T10:02:36.869Z,8.72
2019-03-26T10:05:07.162Z,8.79
2019-03-26T10:07:35.560Z,8.85
2019-03-26T10:10:05.172Z,8.98
2019-03-26T10:12:33.834Z,8.92
2019-03-26T10:15:07.730Z,8.99
2019-03-26T10:17:36.570Z,8.91
2019-03-26T10:20:05.480Z,8.90
2019-03-26T10:22:34.290Z,8.90
2019-03-26T10:25:02.759Z,8.84
2019-03-26T10:27:31.178Z,8.87
2019-03-26T10:29:59.438Z,8.89
2019-03-26T10:32:27.723Z,8.78
2019-03-26T10:34:56.099Z,8.77
2019-03-26T10:37:24.771Z,8.64
2019-03-26T10:39:53.157Z,8.57
2019-03-26T10:42:21.481Z,8.61
2019-03-26T10:44:50.236Z,8.74
2019-03-26T10:47:18.536Z,8.68
2019-03-26T10:49:46.785Z,8.71
2019-03-26T10:52:15.078Z,8.66
2019-03-26T10:54:43.463Z,8.71
2019-03-26T10:57:11.851Z,8.66
2019-03-26T10:59:40.216Z,8.81
2019-03-26T11:02:08.934Z,8.89
2019-03-26T11:04:37.166Z,8.82
2019-03-26T11:07:05.557Z,8.71
2019-03-26T11:09:34.399Z,8.67
2019-03-26T11:12:02.819Z,8.69
2019-03-26T11:14:32.355Z,8.68
2019-03-26T11:17:11.603Z,8.72
2019-03-26T11:19:40.042Z,8.63
2019-03-26T11:22:08.691Z,8.45
2019-03-26T11:24:37.063Z,8.51
2019-03-26T11:27:05.463Z,8.50
2019-03-26T11:29:33.762Z,8.42
2019-03-26T11:32:01.983Z,8.43
2019-03-26T11:34:30.263Z,8.50
2019-03-26T11:36:58.526Z,8.26
2019-03-26T11:39:32.679Z,8.32
2019-03-26T11:41:56.952Z,8.71
2019-03-26T11:44:25.347Z,8.64
2019-03-26T11:46:53.751Z,8.52
2019-03-26T11:49:22.067Z,8.33
2019-03-26T11:51:50.321Z,8.23
2019-03-26T11:54:18.740Z,7.98
2019-03-26T11:56:47.391Z,7.88
2019-03-26T11:59:15.757Z,7.91
2019-03-26T12:01:43.990Z,7.85
2019-03-26T12:04:12.307Z,7.85
2019-03-26T12:06:40.535Z,7.67
2019-03-26T12:09:09.025Z,7.68
2019-03-26T12:11:38.135Z,7.54
2019-03-26T12:14:07.412Z,7.60
2019-03-26T12:16:35.690Z,7.30
2019-03-26T12:19:06.297Z,7.30
2019-03-26T12:21:34.690Z,7.36
2019-03-26T12:24:03.283Z,7.22
2019-03-26T12:26:31.737Z,7.06
2019-03-26T12:29:00.160Z,7.18
2019-03-26T12:31:28.816Z,7.38
2019-03-26T12:33:57.210Z,7.29
2019-03-26T12:36:39.161Z,7.14
2019-03-26T12:38:55.679Z,7.15
2019-03-26T12:41:23.956Z,7.23
2019-03-26T12:43:52.697Z,7.20
2019-03-26T12:46:21.149Z,7.25
2019-03-26T12:48:49.427Z,7.39
2019-03-26T12:51:17.719Z,7.38
2019-03-26T12:53:46.012Z,7.32
2019-03-26T12:56:14.853Z,7.37
2019-03-26T12:58:43.246Z,7.35
2019-03-26T13:01:11.574Z,7.42
2019-03-26T13:03:39.917Z,7.31
2019-03-26T13:06:08.176Z,7.37
2019-03-26T13:08:37.234Z,7.46
2019-03-26T13:11:05.737Z,7.43
2019-03-26T13:13:34.131Z,7.57
2019-03-26T13:16:02.517Z,7.50
2019-03-26T13:18:30.768Z,7.49
2019-03-26T13:21:01.283Z,7.49
2019-03-26T13:23:30.155Z,7.51
2019-03-26T13:25:58.570Z,7.60
2019-03-26T13:28:26.819Z,7.52
2019-03-26T13:30:55.089Z,7.61
2019-03-26T13:33:23.346Z,7.63
2019-03-26T13:35:52.342Z,7.81
2019-03-26T13:38:20.617Z,7.83
2019-03-26T13:40:49.084Z,7.96
2019-03-26T13:43:19.344Z,8.05
2019-03-26T13:45:47.858Z,7.98
2019-03-26T13:48:16.145Z,7.90
2019-03-26T13:50:44.576Z,7.96
2019-03-26T13:53:12.926Z,7.79
2019-03-26T13:55:41.359Z,7.94
2019-03-26T13:58:09.596Z,8.06
2019-03-26T14:00:39.500Z,7.98
2019-03-26T14:03:08.542Z,8.04
2019-03-26T14:05:36.942Z,7.93
2019-03-26T14:08:05.336Z,7.90
2019-03-26T14:10:40.708Z,7.82
2019-03-26T14:13:04.533Z,7.90
2019-03-26T14:15:33.456Z,7.96
2019-03-26T14:18:02.586Z,8.01
2019-03-26T14:20:30.905Z,8.10
2019-03-26T14:23:03.306Z,8.02
2019-03-26T14:25:31.698Z,7.99
2019-03-26T14:28:00.542Z,8.02
2019-03-26T14:30:41.839Z,8.14
2019-03-26T14:33:10.299Z,8.19
2019-03-26T14:35:40.572Z,8.37
2019-03-26T14:38:09.038Z,8.44
2019-03-26T14:40:37.540Z,8.52
2019-03-26T14:43:06.383Z,8.80
2019-03-26T14:45:34.811Z,8.73
2019-03-26T14:48:03.451Z,8.71
2019-03-26T14:50:32.548Z,8.56
2019-03-26T14:53:00.949Z,8.46
2019-03-26T14:55:29.371Z,8.38
2019-03-26T14:57:57.627Z,8.43
2019-03-26T15:00:26.036Z,8.48
2019-03-26T15:02:54.279Z,8.57
2019-03-26T15:05:22.571Z,8.27
2019-03-26T15:07:50.911Z,8.26
2019-03-26T15:10:19.501Z,8.25
2019-03-26T15:12:47.856Z,8.20
2019-03-26T15:15:16.192Z,8.17
2019-03-26T15:17:44.587Z,8.22
2019-03-26T15:20:13.024Z,8.31
2019-03-26T15:22:41.297Z,8.31
2019-03-26T15:25:09.724Z,8.21
2019-03-26T15:27:38.013Z,8.04
2019-03-26T15:30:07.345Z,8.03
2019-03-26T15:32:35.686Z,8.08
2019-03-26T15:35:04.933Z,8.07
2019-03-26T15:37:33.243Z,8.08
2019-03-26T15:40:01.678Z,8.03
2019-03-26T15:42:29.978Z,7.93
2019-03-26T15:44:58.201Z,8.02
2019-03-26T15:47:26.623Z,8.15
2019-03-26T15:49:54.952Z,8.17
2019-03-26T15:52:23.232Z,8.03
2019-03-26T15:54:51.467Z,8.12
2019-03-26T15:57:19.747Z,8.06
2019-03-26T15:59:47.977Z,8.07
2019-03-26T16:02:16.268Z,8.08
2019-03-26T16:04:44.557Z,8.17
2019-03-26T16:07:13.048Z,8.07
2019-03-26T16:09:41.901Z,8.12
2019-03-26T16:12:10.245Z,8.12
2019-03-26T16:14:38.518Z,8.00
2019-03-26T16:17:06.829Z,8.09
2019-03-26T16:19:36.567Z,7.99
2019-03-26T16:22:05.138Z,8.06
2019-03-26T16:24:33.495Z,8.12
2019-03-26T16:27:01.878Z,8.06
2019-03-26T16:29:30.698Z,8.03
2019-03-26T16:31:59.295Z,8.05
2019-03-26T16:34:27.515Z,8.02
2019-03-26T16:36:59.696Z,8.09
2019-03-26T16:39:26.050Z,8.04
2019-03-26T16:41:54.348Z,8.03
2019-03-26T16:44:22.581Z,8.02
2019-03-26T16:46:50.874Z,7.95
2019-03-26T16:49:19.218Z,7.93
2019-03-26T16:51:47.642Z,7.96
2019-03-26T16:54:15.848Z,7.99
2019-03-26T16:56:44.149Z,7.87
2019-03-26T16:59:12.496Z,7.85
2019-03-26T17:01:41.701Z,7.96
2019-03-26T17:04:10.072Z,7.93
2019-03-26T17:06:39.387Z,7.91
2019-03-26T17:09:07.992Z,7.93
2019-03-26T17:11:36.400Z,7.94
2019-03-26T17:14:04.770Z,7.99
2019-03-26T17:16:33.009Z,7.95
2019-03-26T17:19:01.409Z,7.90
2019-03-26T17:21:29.675Z,7.89
2019-03-26T17:23:57.945Z,7.96
2019-03-26T17:26:26.187Z,7.97
2019-03-26T17:28:54.528Z,7.92
2019-03-26T17:31:23.369Z,7.93
2019-03-26T17:33:51.744Z,7.90
2019-03-26T17:36:20.092Z,7.91
2019-03-26T17:38:48.377Z,7.91
2019-03-26T17:41:16.683Z,7.93
2019-03-26T17:43:45.162Z,7.93
2019-03-26T17:46:13.638Z,7.96
2019-03-26T17:48:42.824Z,7.93
2019-03-26T17:51:11.069Z,7.95
2019-03-26T17:53:39.451Z,7.97
2019-03-26T17:56:08.220Z,7.86
2019-03-26T17:58:36.512Z,7.78
2019-03-26T18:01:04.948Z,7.75
2019-03-26T18:03:33.874Z,7.78
2019-03-26T18:06:02.137Z,7.69
2019-03-26T18:08:30.440Z,7.29
2019-03-26T18:10:58.744Z,6.59
2019-03-26T18:13:27.063Z,6.09
2019-03-26T18:15:55.288Z,5.86
2019-03-26T18:18:23.599Z,5.83
2019-03-26T18:20:51.880Z,5.73
2019-03-26T18:23:20.175Z,5.59
2019-03-26T18:25:48.418Z,5.58
2019-03-26T18:28:16.713Z,5.62
2019-03-26T18:30:45.017Z,5.64
2019-03-26T18:33:13.402Z,5.46
2019-03-26T18:35:41.885Z,5.41
2019-03-26T18:38:10.281Z,5.15
2019-03-26T18:40:38.535Z,5.08
2019-03-26T18:43:07.026Z,5.09
2019-03-26T18:45:35.346Z,5.12
2019-03-26T18:48:03.696Z,5.31
2019-03-26T18:50:32.191Z,5.45
2019-03-26T18:53:00.557Z,5.63
2019-03-26T18:55:28.996Z,5.60
2019-03-26T18:57:57.366Z,5.76
2019-03-26T19:00:36.748Z,5.88
2019-03-26T19:03:05.631Z,5.91
2019-03-26T19:05:35.318Z,5.77
2019-03-26T19:08:03.689Z,6.03
2019-03-26T19:10:32.525Z,6.02
2019-03-26T19:13:00.946Z,5.98
2019-03-26T19:15:29.400Z,5.92
2019-03-26T19:17:57.970Z,5.92
2019-03-26T19:20:26.610Z,5.94
2019-03-26T19:22:54.936Z,5.80
2019-03-26T19:25:23.360Z,5.83
2019-03-26T19:27:51.665Z,5.81
2019-03-26T19:30:21.785Z,5.77
2019-03-26T19:32:50.357Z,5.93
2019-03-26T19:35:18.882Z,5.76
2019-03-26T19:37:49.174Z,5.72
2019-03-26T19:40:17.478Z,5.71
2019-03-26T19:42:47.135Z,5.84
2019-03-26T19:45:15.728Z,5.93
2019-03-26T19:47:44.103Z,5.87
2019-03-26T19:50:13.208Z,5.88
2019-03-26T19:52:41.663Z,5.85
2019-03-26T19:55:10.338Z,5.87
2019-03-26T19:57:38.779Z,5.87
2019-03-26T20:00:09.263Z,5.88
2019-03-26T20:02:37.533Z,5.79
2019-03-26T20:05:06.541Z,5.77
2019-03-26T20:07:35.069Z,5.81
2019-03-26T20:10:04.488Z,5.74
2019-03-26T20:12:32.902Z,5.79
2019-03-26T20:15:01.399Z,5.75
2019-03-26T20:17:29.740Z,5.81
2019-03-26T20:19:58.121Z,5.80
2019-03-26T20:22:26.608Z,5.76
2019-03-26T20:24:55.518Z,5.81
2019-03-26T20:27:25.880Z,5.71
2019-03-26T20:29:54.546Z,5.97
2019-03-26T20:32:23.148Z,5.91
2019-03-26T20:34:51.454Z,5.85
2019-03-26T20:37:20.609Z,5.70
2019-03-26T20:39:51.391Z,5.76
2019-03-26T20:42:19.765Z,5.69
2019-03-26T20:44:48.167Z,5.74
2019-03-26T20:47:16.649Z,5.74
2019-03-26T20:49:45.037Z,5.73
2019-03-26T20:52:13.329Z,5.79
2019-03-26T20:54:41.623Z,5.77
2019-03-26T20:57:09.929Z,5.74
2019-03-26T20:59:38.495Z,5.69
2019-03-26T21:02:06.818Z,5.73
2019-03-26T21:04:35.818Z,5.75
2019-03-26T21:07:07.087Z,5.76
2019-03-26T21:09:35.845Z,5.84
2019-03-26T21:12:04.258Z,5.85
2019-03-26T21:14:32.744Z,5.84
2019-03-26T21:17:01.158Z,5.88
2019-03-26T21:19:29.534Z,5.90
2019-03-26T21:21:57.918Z,5.86
2019-03-26T21:27:05.897Z,6.41
2019-03-26T21:29:34.247Z,6.38
2019-03-26T21:32:02.567Z,6.28
2019-03-26T21:34:31.029Z,6.24
2019-03-26T21:36:59.636Z,5.98
2019-03-26T21:39:27.890Z,5.95
2019-03-26T21:41:56.222Z,5.89
2019-03-26T21:44:24.505Z,5.86
2019-03-26T21:46:52.786Z,5.88
2019-03-26T21:49:21.070Z,5.80
2019-03-26T21:51:49.533Z,5.77
2019-03-26T21:54:17.779Z,5.77
2019-03-26T21:56:46.079Z,5.79
2019-03-26T21:59:14.448Z,5.72
2019-03-26T22:01:42.728Z,5.74
2019-03-26T22:04:10.953Z,5.76
2019-03-26T22:06:39.857Z,5.80
2019-03-26T22:09:08.291Z,5.81
2019-03-26T22:11:49.218Z,5.82
2019-03-26T22:14:17.266Z,5.77
2019-03-26T22:16:41.550Z,5.74
2019-03-26T22:19:27.767Z,5.72
2019-03-26T22:21:46.962Z,5.79
2019-03-26T22:24:17.152Z,5.84
2019-03-26T22:26:45.573Z,5.90
2019-03-26T22:29:13.806Z,5.85
2019-03-26T22:31:42.108Z,5.87
2019-03-26T22:34:10.494Z,5.91
2019-03-26T22:36:38.777Z,5.90
2019-03-26T22:39:07.730Z,5.87
2019-03-26T22:41:36.251Z,5.90
2019-03-26T22:44:04.661Z,5.95
2019-03-26T22:46:33.416Z,5.99
2019-03-26T22:49:01.754Z,6.02
2019-03-26T22:51:30.234Z,6.05
2019-03-26T22:53:58.860Z,6.07
2019-03-26T22:56:28.068Z,6.09
2019-03-26T22:58:56.664Z,6.11
2019-03-26T23:01:25.314Z,6.13
2019-03-26T23:03:53.812Z,6.16
2019-03-26T23:06:22.553Z,6.19
2019-03-26T23:08:51.119Z,6.17
2019-03-26T23:11:20.046Z,6.13
2019-03-26T23:13:48.925Z,6.15
2019-03-26T23:16:17.391Z,6.13
2019-03-26T23:18:45.859Z,6.16
2019-03-26T23:21:14.313Z,6.17
2019-03-26T23:23:42.848Z,6.18
2019-03-26T23:26:11.488Z,6.19
2019-03-26T23:28:40.576Z,6.19
2019-03-26T23:31:09.131Z,6.20
2019-03-26T23:33:37.682Z,6.20
2019-03-26T23:36:06.153Z,6.21
2019-03-26T23:38:34.651Z,6.22
2019-03-26T23:41:03.265Z,6.23
2019-03-26T23:43:31.772Z,6.24
2019-03-26T23:46:00.274Z,6.24
2019-03-26T23:48:28.851Z,6.24
2019-03-26T23:50:57.574Z,6.23
2019-03-26T23:53:26.200Z,6.18
2019-03-26T23:55:54.739Z,6.18
2019-03-26T23:58:23.290Z,6.17
